createdAt,value
2019-04-06T00:01:46.387Z,10.90
2019-04-06T00:04:16.959Z,11.10
2019-04-06T00:06:46.399Z,11.10
2019-04-06T00:09:15.921Z,11.00
2019-04-06T00:11:45.365Z,10.90
2019-04-06T00:14:14.840Z,10.70
2019-04-06T00:16:45.640Z,10.80
2019-04-06T00:19:16.103Z,10.70
2019-04-06T00:21:45.636Z,10.70
2019-04-06T00:24:15.177Z,10.80
2019-04-06T00:26:44.647Z,10.90
2019-04-06T00:29:17.839Z,10.90
2019-04-06T00:31:51.758Z,10.80
2019-04-06T00:34:21.336Z,10.90
2019-04-06T00:36:50.813Z,10.90
2019-04-06T00:39:20.267Z,10.90
2019-04-06T00:41:49.730Z,10.90
2019-04-06T00:44:19.255Z,11.10
2019-04-06T00:46:48.716Z,10.90
2019-04-06T00:49:18.172Z,11.00
2019-04-06T00:51:48.831Z,10.90
2019-04-06T00:54:18.305Z,10.80
2019-04-06T00:56:48.696Z,10.80
2019-04-06T00:59:18.186Z,10.80
2019-04-06T01:01:48.722Z,10.70
2019-04-06T01:04:18.193Z,10.90
2019-04-06T01:06:48.837Z,10.70
2019-04-06T01:09:18.304Z,10.70
2019-04-06T01:11:49.730Z,10.80
2019-04-06T01:14:19.254Z,10.60
2019-04-06T01:16:49.953Z,10.60
2019-04-06T01:19:19.430Z,10.90
2019-04-06T01:21:48.896Z,10.70
2019-04-06T01:24:18.447Z,10.60
2019-04-06T01:26:50.646Z,10.60
2019-04-06T01:29:20.079Z,10.50
2019-04-06T01:31:49.654Z,10.50
2019-04-06T01:34:19.108Z,10.50
2019-04-06T01:36:49.671Z,10.60
2019-04-06T01:39:19.145Z,10.60
2019-04-06T01:41:50.923Z,10.60
2019-04-06T01:44:22.471Z,10.60
2019-04-06T01:46:51.952Z,10.60
2019-04-06T01:49:22.407Z,10.60
2019-04-06T01:51:51.858Z,10.60
2019-04-06T01:54:21.306Z,10.70
2019-04-06T01:56:50.764Z,10.50
2019-04-06T01:59:20.236Z,10.40
2019-04-06T02:02:00.165Z,10.40
2019-04-06T02:04:29.673Z,10.40
2019-04-06T02:06:59.120Z,10.50
2019-04-06T02:09:28.581Z,10.50
2019-04-06T02:11:58.038Z,10.40
2019-04-06T02:14:27.503Z,10.40
2019-04-06T02:16:56.965Z,10.40
2019-04-06T02:19:26.409Z,10.40
2019-04-06T02:21:57.414Z,10.60
2019-04-06T02:24:28.874Z,10.50
2019-04-06T02:26:59.359Z,10.60
2019-04-06T02:29:28.929Z,10.40
2019-04-06T02:32:17.393Z,10.50
2019-04-06T02:35:07.045Z,10.50
2019-04-06T02:37:43.858Z,10.50
2019-04-06T02:40:19.617Z,10.50
2019-04-06T02:42:50.690Z,10.80
2019-04-06T02:45:26.095Z,10.70
2019-04-06T02:47:56.478Z,10.70
2019-04-06T02:50:25.957Z,10.60
2019-04-06T02:52:55.442Z,10.40
2019-04-06T02:55:25.006Z,10.40
2019-04-06T02:57:54.443Z,10.50
2019-04-06T03:00:23.892Z,10.40
2019-04-06T03:02:53.333Z,10.40
2019-04-06T03:05:26.418Z,10.40
2019-04-06T03:07:58.948Z,10.60
2019-04-06T03:10:28.405Z,10.60
2019-04-06T03:12:58.026Z,10.50
2019-04-06T03:15:31.533Z,10.50
2019-04-06T03:18:00.978Z,10.60
2019-04-06T03:20:30.375Z,10.50
2019-04-06T03:22:59.813Z,10.60
2019-04-06T03:25:29.239Z,10.60
2019-04-06T03:27:58.705Z,10.50
2019-04-06T03:30:28.277Z,10.60
2019-04-06T03:32:57.811Z,10.80
2019-04-06T03:35:27.516Z,10.60
2019-04-06T03:37:57.267Z,10.60
2019-04-06T03:40:26.805Z,10.60
2019-04-06T03:42:59.572Z,10.60
2019-04-06T03:45:29.054Z,10.50
2019-04-06T03:47:59.604Z,10.50
2019-04-06T03:50:31.011Z,10.50
2019-04-06T03:53:00.476Z,10.50
2019-04-06T03:55:29.929Z,10.40
2019-04-06T03:57:59.375Z,10.60
2019-04-06T04:00:28.836Z,10.50
2019-04-06T04:02:59.263Z,10.60
2019-04-06T04:05:28.730Z,10.40
2019-04-06T04:07:58.209Z,10.30
2019-04-06T04:10:38.026Z,10.20
2019-04-06T04:13:07.604Z,10.20
2019-04-06T04:15:37.005Z,10.30
2019-04-06T04:18:06.441Z,10.30
2019-04-06T04:20:35.886Z,10.40
2019-04-06T04:23:05.452Z,10.50
2019-04-06T04:25:34.850Z,10.50
2019-04-06T04:28:04.394Z,10.30
2019-04-06T04:30:35.007Z,10.30
2019-04-06T04:33:06.633Z,10.20
2019-04-06T04:35:36.081Z,10.20
2019-04-06T04:38:05.530Z,10.20
2019-04-06T04:40:34.989Z,10.30
2019-04-06T04:43:04.437Z,10.20
2019-04-06T04:45:33.861Z,10.20
2019-04-06T04:48:03.358Z,10.30
2019-04-06T04:50:32.862Z,10.40
2019-04-06T04:53:02.307Z,10.30
2019-04-06T04:55:32.680Z,10.30
2019-04-06T04:58:02.041Z,10.30
2019-04-06T05:00:31.517Z,10.40
2019-04-06T05:03:02.299Z,10.50
2019-04-06T05:05:31.772Z,10.30
2019-04-06T05:08:01.236Z,10.30
2019-04-06T05:10:30.685Z,10.20
2019-04-06T05:13:02.127Z,10.20
2019-04-06T05:15:38.434Z,10.30
2019-04-06T05:18:07.996Z,10.50
2019-04-06T05:20:38.383Z,10.40
2019-04-06T05:23:11.310Z,10.30
2019-04-06T05:25:40.005Z,10.30
2019-04-06T05:28:09.415Z,10.30
2019-04-06T05:30:38.890Z,10.20
2019-04-06T05:33:08.354Z,10.30
2019-04-06T05:35:37.819Z,10.40
2019-04-06T05:38:07.253Z,10.40
2019-04-06T05:40:36.714Z,10.20
2019-04-06T05:43:06.173Z,10.20
2019-04-06T05:45:35.615Z,10.10
2019-04-06T05:48:05.028Z,10.20
2019-04-06T05:50:34.465Z,10.20
2019-04-06T05:53:04.008Z,10.20
2019-04-06T05:55:33.664Z,10.50
2019-04-06T05:58:09.369Z,10.50
2019-04-06T06:00:39.850Z,10.50
2019-04-06T06:03:08.585Z,10.30
2019-04-06T06:05:40.285Z,10.40
2019-04-06T06:08:10.524Z,10.50
2019-04-06T06:10:39.991Z,10.50
2019-04-06T06:13:10.355Z,10.40
2019-04-06T06:15:39.817Z,10.50
2019-04-06T06:18:09.279Z,10.50
2019-04-06T06:20:38.855Z,10.30
2019-04-06T06:23:09.352Z,10.40
2019-04-06T06:25:38.801Z,10.40
2019-04-06T06:28:14.905Z,10.50
2019-04-06T06:30:40.423Z,10.40
2019-04-06T06:33:12.384Z,10.60
2019-04-06T06:35:41.889Z,10.60
2019-04-06T06:38:12.273Z,10.60
2019-04-06T06:40:41.710Z,10.40
2019-04-06T06:43:16.978Z,10.60
2019-04-06T06:45:46.426Z,10.40
2019-04-06T06:48:18.197Z,10.70
2019-04-06T06:50:47.622Z,10.60
2019-04-06T06:53:18.029Z,10.90
2019-04-06T06:55:47.533Z,11.00
2019-04-06T06:58:25.095Z,10.80
2019-04-06T07:00:48.095Z,10.90
2019-04-06T07:03:17.551Z,11.00
2019-04-06T07:05:47.162Z,10.80
2019-04-06T07:08:16.601Z,10.60
2019-04-06T07:10:46.041Z,10.60
2019-04-06T07:13:16.700Z,10.80
2019-04-06T07:15:56.230Z,10.90
2019-04-06T07:18:26.000Z,10.90
2019-04-06T07:20:55.443Z,11.10
2019-04-06T07:23:28.410Z,11.10
2019-04-06T07:25:58.933Z,11.30
2019-04-06T07:28:37.883Z,11.30
2019-04-06T07:30:59.225Z,11.40
2019-04-06T07:33:28.776Z,11.50
2019-04-06T07:35:58.421Z,11.50
2019-04-06T07:38:27.849Z,11.60
2019-04-06T07:41:04.787Z,11.70
2019-04-06T07:43:34.258Z,11.80
2019-04-06T07:46:03.952Z,12.00
2019-04-06T07:48:33.433Z,12.10
2019-04-06T07:51:03.055Z,12.30
2019-04-06T07:53:32.713Z,12.20
2019-04-06T07:56:02.371Z,12.30
2019-04-06T07:58:47.154Z,12.50
2019-04-06T08:01:08.517Z,12.70
2019-04-06T08:03:40.195Z,12.80
2019-04-06T08:06:11.470Z,12.70
2019-04-06T08:08:41.220Z,12.60
2019-04-06T08:11:10.642Z,12.60
2019-04-06T08:13:40.104Z,12.70
2019-04-06T08:16:10.781Z,12.80
2019-04-06T08:18:40.183Z,12.90
2019-04-06T08:21:10.643Z,12.80
2019-04-06T08:23:40.131Z,12.80
2019-04-06T08:26:09.570Z,12.80
2019-04-06T08:28:39.074Z,12.80
2019-04-06T08:31:08.533Z,12.70
2019-04-06T08:33:38.009Z,12.80
2019-04-06T08:36:07.528Z,12.60
2019-04-06T08:38:39.643Z,12.70
2019-04-06T08:41:09.129Z,12.70
2019-04-06T08:43:40.526Z,12.70
2019-04-06T08:46:10.046Z,12.70
2019-04-06T08:48:39.442Z,12.80
2019-04-06T08:51:12.430Z,12.80
2019-04-06T08:53:41.073Z,12.90
2019-04-06T08:56:11.493Z,13.20
2019-04-06T08:58:40.965Z,13.20
2019-04-06T09:01:10.438Z,13.30
2019-04-06T09:03:39.949Z,13.10
2019-04-06T09:06:09.481Z,13.30
2019-04-06T09:08:39.006Z,13.30
2019-04-06T09:11:08.514Z,13.40
2019-04-06T09:13:40.404Z,13.30
2019-04-06T09:16:10.126Z,13.30
2019-04-06T09:18:43.810Z,13.40
2019-04-06T09:21:13.379Z,13.50
2019-04-06T09:23:45.009Z,13.80
2019-04-06T09:26:14.528Z,13.90
2019-04-06T09:28:45.081Z,14.00
2019-04-06T09:31:14.816Z,14.20
2019-04-06T09:33:44.466Z,14.10
2019-04-06T09:36:16.548Z,13.90
2019-04-06T09:38:46.407Z,13.90
2019-04-06T09:41:17.057Z,14.20
2019-04-06T09:43:50.278Z,14.20
2019-04-06T09:46:24.640Z,14.10
2019-04-06T09:48:56.097Z,14.10
2019-04-06T09:51:28.366Z,14.20
2019-04-06T09:54:07.578Z,14.30
2019-04-06T09:56:56.060Z,14.80
2019-04-06T09:59:48.433Z,14.90
2019-04-06T10:02:28.502Z,14.50
2019-04-06T10:05:15.078Z,14.30
2019-04-06T10:07:58.475Z,14.20
2019-04-06T10:10:38.090Z,14.30
2019-04-06T10:13:09.293Z,14.30
2019-04-06T10:15:46.174Z,14.40
2019-04-06T10:18:35.555Z,14.60
2019-04-06T10:21:24.049Z,14.70
2019-04-06T10:24:02.482Z,15.10
2019-04-06T10:26:33.629Z,15.10
2019-04-06T10:29:19.887Z,15.00
2019-04-06T10:31:53.249Z,15.10
2019-04-06T10:34:27.427Z,15.00
2019-04-06T10:37:10.932Z,15.30
2019-04-06T10:39:42.424Z,15.20
2019-04-06T10:42:29.281Z,15.30
2019-04-06T10:44:59.999Z,15.50
2019-04-06T10:47:35.227Z,15.50
2019-04-06T10:50:09.853Z,15.40
2019-04-06T10:52:46.996Z,15.20
2019-04-06T10:55:18.395Z,15.20
2019-04-06T10:57:49.532Z,15.30
2019-04-06T11:00:29.919Z,15.30
2019-04-06T11:03:13.838Z,15.30
2019-04-06T11:05:47.419Z,15.20
2019-04-06T11:08:27.341Z,15.40
2019-04-06T11:11:02.521Z,15.60
2019-04-06T11:13:49.772Z,15.60
2019-04-06T11:16:32.710Z,15.80
2019-04-06T11:19:20.685Z,15.50
2019-04-06T11:21:57.752Z,15.30
2019-04-06T11:24:28.824Z,15.70
2019-04-06T11:27:02.710Z,15.50
2019-04-06T11:29:34.949Z,15.70
2019-04-06T11:32:09.893Z,15.70
2019-04-06T11:34:59.210Z,15.80
2019-04-06T11:37:46.757Z,16.10
2019-04-06T11:40:32.968Z,16.50
2019-04-06T11:43:22.371Z,16.70
2019-04-06T11:46:05.467Z,17.10
2019-04-06T11:48:35.836Z,17.10
2019-04-06T11:51:18.686Z,17.30
2019-04-06T11:54:05.602Z,17.20
2019-04-06T11:56:55.459Z,17.00
2019-04-06T11:59:26.959Z,16.80
2019-04-06T12:01:58.028Z,16.60
2019-04-06T12:04:30.997Z,16.70
2019-04-06T12:07:13.968Z,16.80
2019-04-06T12:10:01.369Z,16.80
2019-04-06T12:12:39.532Z,17.00
2019-04-06T12:15:16.565Z,16.80
2019-04-06T12:17:50.104Z,16.80
2019-04-06T12:20:21.220Z,17.00
2019-04-06T12:22:56.089Z,17.60
2019-04-06T12:25:30.168Z,17.50
2019-04-06T12:28:01.253Z,17.60
2019-04-06T12:30:37.960Z,17.40
2019-04-06T12:33:14.948Z,17.50
2019-04-06T12:35:51.824Z,17.60
2019-04-06T12:38:25.379Z,17.70
2019-04-06T12:41:11.679Z,17.50
2019-04-06T12:43:42.713Z,17.40
2019-04-06T12:46:22.865Z,17.40
2019-04-06T12:48:59.874Z,17.50
2019-04-06T12:51:46.084Z,17.30
2019-04-06T12:54:18.692Z,17.50
2019-04-06T12:57:04.810Z,17.50
2019-04-06T12:59:49.154Z,17.80
2019-04-06T13:02:23.160Z,18.40
2019-04-06T13:05:06.728Z,18.60
2019-04-06T13:07:50.295Z,18.70
2019-04-06T13:10:40.556Z,18.50
2019-04-06T13:13:11.579Z,18.40
2019-04-06T13:15:59.212Z,18.10
2019-04-06T13:18:30.342Z,18.10
2019-04-06T13:21:07.408Z,17.90
2019-04-06T13:23:44.240Z,17.90
2019-04-06T13:26:30.476Z,17.80
2019-04-06T13:29:01.586Z,18.00
2019-04-06T13:31:45.509Z,18.10
2019-04-06T13:34:25.487Z,18.30
2019-04-06T13:36:59.395Z,18.60
2019-04-06T13:39:45.603Z,19.00
2019-04-06T13:42:37.057Z,19.20
2019-04-06T13:45:17.249Z,19.40
2019-04-06T13:47:58.614Z,19.40
2019-04-06T13:50:31.783Z,19.40
2019-04-06T13:53:02.872Z,19.50
2019-04-06T13:55:48.769Z,19.60
2019-04-06T13:58:25.542Z,19.40
2019-04-06T14:01:15.091Z,19.60
2019-04-06T14:03:50.698Z,19.60
2019-04-06T14:06:30.717Z,19.70
2019-04-06T14:09:02.034Z,19.20
2019-04-06T14:11:38.654Z,19.20
2019-04-06T14:14:18.771Z,19.00
2019-04-06T14:16:49.961Z,19.00
2019-04-06T14:19:36.164Z,18.70
2019-04-06T14:22:10.278Z,18.60
2019-04-06T14:24:47.136Z,18.50
2019-04-06T14:27:18.365Z,18.50
2019-04-06T14:30:05.746Z,18.40
2019-04-06T14:32:53.240Z,18.20
2019-04-06T14:35:24.344Z,18.20
2019-04-06T14:38:01.428Z,18.10
2019-04-06T14:40:38.375Z,18.20
2019-04-06T14:43:26.165Z,18.10
2019-04-06T14:46:09.396Z,18.20
2019-04-06T14:48:40.467Z,18.00
2019-04-06T14:51:11.958Z,17.90
2019-04-06T14:53:51.848Z,17.80
2019-04-06T14:56:38.321Z,18.00
2019-04-06T14:59:12.346Z,17.90
2019-04-06T15:01:53.397Z,18.10
2019-04-06T15:04:15.653Z,18.00
2019-04-06T15:07:10.781Z,17.80
2019-04-06T15:09:37.653Z,17.70
2019-04-06T15:12:26.867Z,17.70
2019-04-06T15:14:58.337Z,17.60
2019-04-06T15:17:35.024Z,17.40
2019-04-06T15:20:10.460Z,17.50
2019-04-06T15:22:41.585Z,17.50
2019-04-06T15:25:29.419Z,17.60
2019-04-06T15:28:06.690Z,17.60
2019-04-06T15:30:46.767Z,17.60
2019-04-06T15:33:34.613Z,17.40
2019-04-06T15:36:15.672Z,17.10
2019-04-06T15:38:54.797Z,17.00
2019-04-06T15:41:41.820Z,17.00
2019-04-06T15:44:18.692Z,17.20
2019-04-06T15:47:04.702Z,17.50
2019-04-06T15:49:47.910Z,17.60
2019-04-06T15:52:24.170Z,17.60
2019-04-06T15:55:00.676Z,17.40
2019-04-06T15:57:49.035Z,17.30
2019-04-06T16:00:20.315Z,17.20
2019-04-06T16:02:57.162Z,17.00
2019-04-06T16:05:30.939Z,17.00
2019-04-06T16:08:02.043Z,17.20
2019-04-06T16:10:36.156Z,17.20
2019-04-06T16:13:10.029Z,17.00
2019-04-06T16:15:41.401Z,17.30
2019-04-06T16:18:12.654Z,17.40
2019-04-06T16:20:44.114Z,17.50
2019-04-06T16:23:21.462Z,17.30
2019-04-06T16:26:08.751Z,17.20
2019-04-06T16:28:55.643Z,17.30
2019-04-06T16:31:32.205Z,17.40
2019-04-06T16:34:12.052Z,17.40
2019-04-06T16:36:43.188Z,17.40
2019-04-06T16:39:16.753Z,17.30
2019-04-06T16:41:47.893Z,17.10
2019-04-06T16:44:21.984Z,17.20
2019-04-06T16:46:53.094Z,17.10
2019-04-06T16:49:40.212Z,17.10
2019-04-06T16:52:11.315Z,17.00
2019-04-06T16:54:48.233Z,16.90
2019-04-06T16:57:28.986Z,16.90
2019-04-06T17:00:19.008Z,16.90
2019-04-06T17:02:58.801Z,16.90
2019-04-06T17:05:46.151Z,17.00
2019-04-06T17:08:20.255Z,17.00
2019-04-06T17:10:51.306Z,17.00
2019-04-06T17:13:43.022Z,17.00
2019-04-06T17:16:30.374Z,17.00
2019-04-06T17:19:04.836Z,17.00
2019-04-06T17:21:36.108Z,17.10
2019-04-06T17:24:08.222Z,17.00
2019-04-06T17:26:48.142Z,16.80
2019-04-06T17:29:29.609Z,16.90
2019-04-06T17:32:10.145Z,17.10
2019-04-06T17:34:53.408Z,17.00
2019-04-06T17:37:20.052Z,16.80
2019-04-06T17:39:50.666Z,16.70
2019-04-06T17:42:35.504Z,16.50
2019-04-06T17:45:24.429Z,16.50
2019-04-06T17:47:59.440Z,16.50
2019-04-06T17:50:36.527Z,16.50
2019-04-06T17:53:10.510Z,16.50
2019-04-06T17:55:50.772Z,16.50
2019-04-06T17:58:37.289Z,16.40
2019-04-06T18:01:17.407Z,16.40
2019-04-06T18:03:48.610Z,16.40
2019-04-06T18:06:35.767Z,16.40
2019-04-06T18:09:11.863Z,16.30
2019-04-06T18:11:43.008Z,16.10
2019-04-06T18:14:12.442Z,16.00
2019-04-06T18:16:43.857Z,16.00
2019-04-06T18:19:13.539Z,16.00
2019-04-06T18:21:43.801Z,15.90
2019-04-06T18:24:13.225Z,15.80
2019-04-06T18:26:42.744Z,15.70
2019-04-06T18:29:12.673Z,15.60
2019-04-06T18:31:46.795Z,15.60
2019-04-06T18:34:17.294Z,15.50
2019-04-06T18:36:48.340Z,15.50
2019-04-06T18:39:19.485Z,15.50
2019-04-06T18:41:49.070Z,15.40
2019-04-06T18:44:18.428Z,15.40
2019-04-06T18:46:47.893Z,15.40
2019-04-06T18:49:17.344Z,15.40
2019-04-06T18:51:50.301Z,15.30
2019-04-06T18:54:18.881Z,15.30
2019-04-06T18:56:49.212Z,15.20
2019-04-06T18:59:18.669Z,15.20
2019-04-06T19:01:48.508Z,15.20
2019-04-06T19:04:18.009Z,15.20
2019-04-06T19:06:50.668Z,15.20
2019-04-06T19:09:23.731Z,15.20
2019-04-06T19:11:55.115Z,15.10
2019-04-06T19:14:23.740Z,15.10
2019-04-06T19:16:56.386Z,15.10
2019-04-06T19:19:29.761Z,15.10
2019-04-06T19:21:59.277Z,15.10
2019-04-06T19:24:29.588Z,15.10
2019-04-06T19:26:59.088Z,15.10
2019-04-06T19:29:29.330Z,15.00
2019-04-06T19:31:58.978Z,15.00
2019-04-06T19:34:28.414Z,15.00
2019-04-06T19:36:57.969Z,15.00
2019-04-06T19:39:27.416Z,15.00
2019-04-06T19:41:57.349Z,15.00
2019-04-06T19:44:27.225Z,15.00
2019-04-06T19:47:06.918Z,14.90
2019-04-06T19:49:39.877Z,14.80
2019-04-06T19:52:09.645Z,14.90
2019-04-06T19:54:39.432Z,14.80
2019-04-06T19:57:08.876Z,14.70
2019-04-06T19:59:38.269Z,14.70
2019-04-06T20:02:07.767Z,14.70
2019-04-06T20:04:37.655Z,14.60
2019-04-06T20:07:07.980Z,14.60
2019-04-06T20:09:38.384Z,14.70
2019-04-06T20:12:08.031Z,14.60
2019-04-06T20:14:38.593Z,14.60
2019-04-06T20:17:08.447Z,14.60
2019-04-06T20:19:38.211Z,14.70
2019-04-06T20:22:10.848Z,14.60
2019-04-06T20:24:40.032Z,14.60
2019-04-06T20:27:09.436Z,14.60
2019-04-06T20:29:42.483Z,14.60
2019-04-06T20:32:12.140Z,14.60
2019-04-06T20:34:41.527Z,14.60
2019-04-06T20:37:10.992Z,14.60
2019-04-06T20:39:40.371Z,14.60
2019-04-06T20:42:10.793Z,14.60
2019-04-06T20:44:40.873Z,14.70
2019-04-06T20:47:10.354Z,14.60
2019-04-06T20:49:40.133Z,14.70
2019-04-06T20:52:16.109Z,14.70
2019-04-06T20:54:46.451Z,14.70
2019-04-06T20:57:15.939Z,14.70
2019-04-06T20:59:45.948Z,14.70
2019-04-06T21:02:15.499Z,14.70
2019-04-06T21:04:50.842Z,14.70
2019-04-06T21:07:20.486Z,14.70
2019-04-06T21:09:50.137Z,14.70
2019-04-06T21:12:19.555Z,14.70
2019-04-06T21:14:49.045Z,14.60
2019-04-06T21:17:18.514Z,14.60
2019-04-06T21:19:50.592Z,14.60
2019-04-06T21:22:20.303Z,14.60
2019-04-06T21:24:49.720Z,14.60
2019-04-06T21:27:19.600Z,14.50
2019-04-06T21:29:50.742Z,14.50
2019-04-06T21:32:20.715Z,14.40
2019-04-06T21:34:51.574Z,14.40
2019-04-06T21:37:21.139Z,14.30
2019-04-06T21:39:50.586Z,14.30
2019-04-06T21:42:20.021Z,14.30
2019-04-06T21:44:49.532Z,14.30
2019-04-06T21:47:19.416Z,14.30
2019-04-06T21:49:49.018Z,14.20
2019-04-06T21:52:18.478Z,14.10
2019-04-06T21:54:50.413Z,14.00
2019-04-06T21:57:18.954Z,13.90
2019-04-06T21:59:48.355Z,13.90
2019-04-06T22:02:17.987Z,13.90
2019-04-06T22:04:47.511Z,14.00
2019-04-06T22:07:16.955Z,13.90
2019-04-06T22:09:46.782Z,13.80
2019-04-06T22:12:16.413Z,14.00
2019-04-06T22:14:46.176Z,14.00
2019-04-06T22:17:15.923Z,14.00
2019-04-06T22:19:46.127Z,13.90
2019-04-06T22:22:15.683Z,14.00
2019-04-06T22:24:45.222Z,13.90
2019-04-06T22:27:15.908Z,13.90
2019-04-06T22:29:45.460Z,13.90
2019-04-06T22:32:15.331Z,13.90
2019-04-06T22:34:44.895Z,13.90
2019-04-06T22:37:14.984Z,13.80
2019-04-06T22:39:44.499Z,13.80
2019-04-06T22:42:14.432Z,13.80
2019-04-06T22:44:43.983Z,13.80
2019-04-06T22:47:13.352Z,13.90
2019-04-06T22:49:43.277Z,13.90
2019-04-06T22:52:14.717Z,13.90
2019-04-06T22:54:44.524Z,13.80
2019-04-06T22:57:14.772Z,13.80
2019-04-06T22:59:45.841Z,13.70
2019-04-06T23:02:16.779Z,13.80
2019-04-06T23:04:57.607Z,13.80
2019-04-06T23:07:28.006Z,13.80
2019-04-06T23:09:58.752Z,13.80
2019-04-06T23:12:28.908Z,13.70
2019-04-06T23:14:59.132Z,13.60
2019-04-06T23:17:28.650Z,13.70
2019-04-06T23:20:00.215Z,13.60
2019-04-06T23:22:30.181Z,13.60
2019-04-06T23:24:59.747Z,13.60
2019-04-06T23:27:32.514Z,13.60
2019-04-06T23:30:01.202Z,13.70
2019-04-06T23:32:30.703Z,13.60
2019-04-06T23:35:02.252Z,13.50
2019-04-06T23:37:31.369Z,13.40
2019-04-06T23:40:00.916Z,13.30
2019-04-06T23:42:30.889Z,13.30
2019-04-06T23:45:00.374Z,13.30
2019-04-06T23:47:29.871Z,13.20
2019-04-06T23:49:59.696Z,13.20
2019-04-06T23:52:30.805Z,13.10
2019-04-06T23:55:00.211Z,13.10
2019-04-06T23:57:30.712Z,13.00
